Time;durP1;ratioP1;P1;durP2;ratioP2;P2;SDS_P1;SDS_P2;PMS_P1;PMS_P2;Temp;Humidity;BMP_temperature;BMP_pressure;BME280_temperature;BME280_humidity;BME280_pressure;Samples;Min_cycle;Max_cycle;Signal;HPM_P1;HPM_P2
2024/01/25 00:01:16;;;;;;;10.40;2.80;;;7.60;39.60;;;;;;4997689;28;20214;-83
2024/01/25 00:03:46;;;;;;;9.65;2.97;;;7.50;39.70;;;;;;5008936;28;20230;-82
2024/01/25 00:06:15;;;;;;;11.93;2.63;;;7.50;39.60;;;;;;5006719;28;20234;-82
2024/01/25 00:08:43;;;;;;;10.03;3.13;;;7.50;39.80;;;;;;5006259;28;20302;-81
2024/01/25 00:11:12;;;;;;;10.33;2.90;;;7.50;39.50;;;;;;4991816;28;20251;-82
2024/01/25 00:13:40;;;;;;;8.85;2.30;;;7.50;40.00;;;;;;4986678;28;20249;-83
2024/01/25 00:16:09;;;;;;;9.55;2.70;;;7.60;39.40;;;;;;5014844;28;20226;-83
2024/01/25 00:18:37;;;;;;;10.77;2.30;;;7.50;38.80;;;;;;5022173;28;20234;-83
2024/01/25 00:21:08;;;;;;;7.03;1.93;;;7.50;38.90;;;;;;5024917;28;20230;-84
2024/01/25 00:23:36;;;;;;;7.93;1.90;;;7.50;37.80;;;;;;5004459;28;20233;-84
2024/01/25 00:26:05;;;;;;;9.57;2.47;;;7.50;38.50;;;;;;5001229;28;20237;-83
2024/01/25 00:28:34;;;;;;;5.63;1.90;;;7.50;38.40;;;;;;5022330;28;20249;-84
2024/01/25 00:31:03;;;;;;;8.35;2.13;;;7.40;38.90;;;;;;5015406;28;20230;-84
2024/01/25 00:33:31;;;;;;;5.77;2.10;;;7.40;39.50;;;;;;5010680;28;20253;-84
2024/01/25 00:36:01;;;;;;;7.70;2.00;;;7.50;38.30;;;;;;5023539;28;20403;-83
2024/01/25 00:38:32;;;;;;;7.70;1.92;;;7.40;38.90;;;;;;5022862;28;20305;-85
2024/01/25 00:41:01;;;;;;;6.20;2.13;;;7.50;39.40;;;;;;5002819;28;20268;-82
2024/01/25 00:43:30;;;;;;;8.95;2.20;;;7.50;40.60;;;;;;4999380;28;20234;-84
2024/01/25 00:46:00;;;;;;;6.72;2.08;;;7.30;40.00;;;;;;5007873;28;20234;-83
2024/01/25 00:48:29;;;;;;;6.18;1.83;;;7.40;41.10;;;;;;5007091;28;20320;-84
2024/01/25 00:50:58;;;;;;;5.85;1.98;;;7.30;42.70;;;;;;5006615;28;22806;-83
2024/01/25 00:53:27;;;;;;;10.67;2.30;;;7.40;41.90;;;;;;5008354;28;20236;-89
2024/01/25 00:55:58;;;;;;;6.53;1.90;;;7.30;42.10;;;;;;4992727;28;20277;-83
2024/01/25 00:58:28;;;;;;;9.40;2.37;;;7.20;43.80;;;;;;5007865;28;20240;-84
2024/01/25 01:00:57;;;;;;;9.70;2.37;;;7.20;44.10;;;;;;5008828;28;20327;-84
2024/01/25 01:03:26;;;;;;;8.20;2.40;;;7.10;44.70;;;;;;4996395;28;20245;-86
2024/01/25 01:05:57;;;;;;;7.78;2.65;;;7.20;55.60;;;;;;4987220;28;20277;-84
2024/01/25 01:08:26;;;;;;;10.93;2.63;;;7.20;44.80;;;;;;5000500;28;20786;-84
2024/01/25 01:10:55;;;;;;;7.50;2.63;;;7.20;44.40;;;;;;4991715;28;20232;-84
2024/01/25 01:13:25;;;;;;;8.48;2.70;;;7.20;43.60;;;;;;5011790;28;20249;-84
2024/01/25 01:15:54;;;;;;;9.68;2.42;;;7.20;43.90;;;;;;4985181;28;20329;-84
2024/01/25 01:18:22;;;;;;;8.30;2.55;;;7.20;43.60;;;;;;5007884;28;20229;-83
2024/01/25 01:20:51;;;;;;;10.23;2.97;;;7.20;43.10;;;;;;5006584;28;20227;-82
2024/01/25 01:23:19;;;;;;;11.83;2.60;;;7.10;44.20;;;;;;5007557;28;20230;-83
2024/01/25 01:25:48;;;;;;;8.83;2.57;;;7.10;44.70;;;;;;4993405;28;20243;-84
2024/01/25 01:28:17;;;;;;;14.57;2.63;;;7.10;43.20;;;;;;4990604;28;20240;-85
2024/01/25 01:30:47;;;;;;;9.27;3.00;;;7.00;43.20;;;;;;5004545;28;20221;-84
2024/01/25 01:33:18;;;;;;;16.27;3.30;;;7.10;43.40;;;;;;5004622;28;20238;-84
2024/01/25 01:35:47;;;;;;;12.87;2.70;;;7.10;42.70;;;;;;4999627;28;20312;-85
2024/01/25 01:38:15;;;;;;;11.70;2.80;;;7.10;42.20;;;;;;4990768;28;20320;-83
2024/01/25 01:40:46;;;;;;;15.03;3.37;;;7.10;42.30;;;;;;4976474;28;20305;-83
2024/01/25 01:43:19;;;;;;;15.93;3.40;;;7.10;42.60;;;;;;4997169;28;20222;-84
2024/01/25 01:45:50;;;;;;;12.57;2.73;;;7.10;43.60;;;;;;4993087;28;20238;-86
2024/01/25 01:48:19;;;;;;;13.00;2.95;;;7.00;43.20;;;;;;4999173;28;20229;-85
2024/01/25 01:50:49;;;;;;;16.13;3.42;;;7.00;44.30;;;;;;4979314;28;20218;-85
2024/01/25 01:53:18;;;;;;;15.33;3.10;;;7.10;43.40;;;;;;4995091;28;20243;-81
2024/01/25 01:55:47;;;;;;;13.40;2.92;;;7.00;44.10;;;;;;4993868;28;20241;-83
2024/01/25 01:58:16;;;;;;;15.10;3.40;;;7.00;43.40;;;;;;4997599;28;20225;-82
2024/01/25 02:00:47;;;;;;;13.90;2.90;;;7.00;42.90;;;;;;5002205;28;20225;-81
2024/01/25 02:03:17;;;;;;;13.37;2.90;;;7.00;42.90;;;;;;4973736;28;20258;-83
2024/01/25 02:05:46;;;;;;;15.43;3.63;;;6.90;42.30;;;;;;4996023;28;20583;-83
2024/01/25 02:08:16;;;;;;;16.00;3.63;;;6.90;42.30;;;;;;4986826;28;20578;-83
2024/01/25 02:10:44;;;;;;;12.10;2.83;;;7.00;42.50;;;;;;4999819;28;20288;-83
2024/01/25 02:13:13;;;;;;;15.13;3.33;;;6.90;42.20;;;;;;4999018;28;20245;-83
2024/01/25 02:15:42;;;;;;;11.20;2.73;;;6.90;41.30;;;;;;5005388;28;20226;-84
2024/01/25 02:18:11;;;;;;;16.73;3.73;;;7.00;41.70;;;;;;4979702;28;20235;-84
2024/01/25 02:20:41;;;;;;;13.47;2.97;;;7.00;41.00;;;;;;4996567;28;20218;-83
2024/01/25 02:23:12;;;;;;;17.73;3.30;;;7.10;40.50;;;;;;4973760;28;20285;-83
2024/01/25 02:25:40;;;;;;;9.43;2.70;;;7.00;40.80;;;;;;4974350;28;20316;-83
2024/01/25 02:28:09;;;;;;;14.80;3.47;;;7.00;40.00;;;;;;4977239;28;20233;-83
2024/01/25 02:30:38;;;;;;;11.90;2.57;;;7.00;41.60;;;;;;4982858;28;20325;-83
2024/01/25 02:33:07;;;;;;;16.37;3.23;;;7.10;41.10;;;;;;4972310;28;20260;-83
2024/01/25 02:35:36;;;;;;;15.97;3.10;;;7.20;40.60;;;;;;4974058;28;20242;-83
2024/01/25 02:38:05;;;;;;;14.70;3.40;;;7.10;41.00;;;;;;4993100;28;20313;-84
2024/01/25 02:40:35;;;;;;;11.50;2.60;;;7.10;41.90;;;;;;4994590;28;20236;-82
2024/01/25 02:43:04;;;;;;;15.97;3.13;;;7.10;42.10;;;;;;4945268;28;20232;-83
2024/01/25 02:45:32;;;;;;;19.40;3.13;;;7.10;42.80;;;;;;4974601;28;20222;-81
2024/01/25 02:48:03;;;;;;;17.88;3.45;;;7.00;42.40;;;;;;4991281;28;20690;-81
2024/01/25 02:50:31;;;;;;;11.77;3.20;;;7.00;42.20;;;;;;5002074;28;20291;-82
2024/01/25 02:53:00;;;;;;;16.80;3.47;;;6.90;42.80;;;;;;5009790;28;20605;-82
2024/01/25 02:55:29;;;;;;;11.83;2.90;;;6.90;41.40;;;;;;4998828;28;20222;-83
2024/01/25 02:57:58;;;;;;;14.40;3.57;;;6.80;42.20;;;;;;4994310;28;20319;-81
2024/01/25 03:00:27;;;;;;;15.60;3.83;;;6.90;43.50;;;;;;4995649;28;20299;-83
2024/01/25 03:02:56;;;;;;;12.60;2.93;;;6.80;43.80;;;;;;4994830;28;20232;-82
2024/01/25 03:05:25;;;;;;;13.95;2.78;;;6.80;42.90;;;;;;4990216;28;20222;-84
2024/01/25 03:07:53;;;;;;;10.77;2.90;;;6.70;43.30;;;;;;4991506;28;20566;-84
2024/01/25 03:10:22;;;;;;;10.97;3.37;;;6.70;45.10;;;;;;4991392;28;20215;-84
2024/01/25 03:12:51;;;;;;;20.73;3.17;;;6.70;44.20;;;;;;4981665;28;20317;-82
2024/01/25 03:15:21;;;;;;;20.70;3.53;;;6.70;44.70;;;;;;5008222;28;20282;-83
2024/01/25 03:17:49;;;;;;;12.27;3.43;;;6.70;45.30;;;;;;4982500;28;20488;-85
2024/01/25 03:20:18;;;;;;;18.80;3.40;;;6.60;45.50;;;;;;5001910;28;20225;-84
2024/01/25 03:22:47;;;;;;;13.63;3.17;;;6.70;45.70;;;;;;5006094;28;20233;-84
2024/01/25 03:25:16;;;;;;;17.47;3.63;;;6.80;45.50;;;;;;4995350;28;20238;-84
2024/01/25 03:27:45;;;;;;;13.60;3.23;;;6.70;45.20;;;;;;4980388;28;20229;-85
2024/01/25 03:30:14;;;;;;;19.97;3.60;;;6.70;44.70;;;;;;5002226;28;20229;-85
2024/01/25 03:32:44;;;;;;;17.57;3.13;;;6.70;44.00;;;;;;4986587;28;20222;-85
2024/01/25 03:35:12;;;;;;;16.33;3.10;;;6.80;43.80;;;;;;4976564;28;20235;-86
2024/01/25 03:37:41;;;;;;;17.73;3.30;;;6.80;44.10;;;;;;5008665;28;20380;-85
2024/01/25 03:40:10;;;;;;;15.37;3.30;;;6.70;43.90;;;;;;5002609;28;20302;-84
2024/01/25 03:42:39;;;;;;;13.40;3.00;;;6.80;43.70;;;;;;4986998;28;20225;-84
2024/01/25 03:45:09;;;;;;;13.13;2.90;;;6.80;43.80;;;;;;5001136;28;20230;-84
2024/01/25 03:47:37;;;;;;;13.00;3.00;;;6.80;43.20;;;;;;5003284;28;20320;-83
2024/01/25 03:50:08;;;;;;;14.07;2.80;;;6.80;42.50;;;;;;4988889;28;20224;-83
2024/01/25 03:52:37;;;;;;;14.63;2.97;;;6.70;42.90;;;;;;4988374;28;20222;-84
2024/01/25 03:55:07;;;;;;;14.73;4.07;;;6.70;41.90;;;;;;4991162;28;20316;-84
2024/01/25 03:57:36;;;;;;;10.93;2.57;;;6.70;41.90;;;;;;5002951;28;20215;-84
2024/01/25 04:00:06;;;;;;;18.00;3.20;;;6.70;42.00;;;;;;4995638;28;20250;-84
2024/01/25 04:02:35;;;;;;;15.63;3.40;;;6.70;42.20;;;;;;4989361;28;20862;-85
2024/01/25 04:05:03;;;;;;;14.40;3.47;;;6.60;42.10;;;;;;5008172;28;20867;-84
2024/01/25 04:07:34;;;;;;;14.40;2.97;;;6.60;43.20;;;;;;4987826;28;20697;-84
2024/01/25 04:10:03;;;;;;;15.10;3.73;;;6.60;44.50;;;;;;5007646;28;20757;-83
2024/01/25 04:12:33;;;;;;;17.03;3.43;;;6.70;42.00;;;;;;5010101;28;20293;-83
2024/01/25 04:15:01;;;;;;;16.13;3.45;;;6.70;41.40;;;;;;5001100;28;20593;-83
2024/01/25 04:17:30;;;;;;;17.13;3.43;;;6.80;39.80;;;;;;4997485;28;20310;-85
2024/01/25 04:19:59;;;;;;;14.10;3.23;;;6.80;40.30;;;;;;4995565;28;20234;-83
2024/01/25 04:22:28;;;;;;;15.43;3.40;;;6.60;51.60;;;;;;4990946;28;20230;-84
2024/01/25 04:24:58;;;;;;;22.43;3.73;;;6.60;41.60;;;;;;4988766;28;20222;-84
2024/01/25 04:27:26;;;;;;;15.00;3.33;;;6.60;41.60;;;;;;4994494;28;20226;-84
2024/01/25 04:29:55;;;;;;;16.97;3.47;;;6.50;42.40;;;;;;4991713;28;20300;-83
2024/01/25 04:32:24;;;;;;;19.93;3.70;;;6.60;42.00;;;;;;5001275;28;20327;-83
2024/01/25 04:34:52;;;;;;;16.00;3.40;;;6.70;41.90;;;;;;5001216;28;20309;-84
2024/01/25 04:37:21;;;;;;;14.73;3.03;;;6.60;41.20;;;;;;4983296;28;20245;-83
2024/01/25 04:39:49;;;;;;;22.57;4.27;;;6.60;41.80;;;;;;4981822;28;20763;-82
2024/01/25 04:42:19;;;;;;;19.03;3.20;;;6.70;41.40;;;;;;5003271;28;20231;-82
2024/01/25 04:44:48;;;;;;;15.27;3.27;;;6.60;42.30;;;;;;4985442;28;20219;-82
2024/01/25 04:47:17;;;;;;;13.83;3.07;;;6.60;40.70;;;;;;4977650;28;20311;-83
2024/01/25 04:49:45;;;;;;;14.37;2.90;;;6.60;41.80;;;;;;4974455;28;20254;-82
2024/01/25 04:52:16;;;;;;;12.77;2.97;;;6.60;41.20;;;;;;4998426;28;20312;-84
2024/01/25 04:54:44;;;;;;;17.40;3.23;;;6.50;41.00;;;;;;4982539;28;20273;-83
2024/01/25 04:57:13;;;;;;;14.03;3.07;;;6.50;41.70;;;;;;4997550;28;20233;-83
2024/01/25 04:59:43;;;;;;;17.97;3.23;;;6.50;41.20;;;;;;4978475;28;20296;-82
2024/01/25 05:02:12;;;;;;;14.90;2.87;;;6.60;39.80;;;;;;5003517;28;20692;-82
2024/01/25 05:04:41;;;;;;;13.97;3.03;;;6.60;41.40;;;;;;4992641;28;20218;-84
2024/01/25 05:07:13;;;;;;;12.23;2.60;;;6.50;41.00;;;;;;4996255;28;20240;-83
2024/01/25 05:09:42;;;;;;;14.57;3.17;;;6.50;41.20;;;;;;5015954;28;20309;-85
2024/01/25 05:12:11;;;;;;;12.83;3.07;;;6.50;40.30;;;;;;4986096;28;20287;-84
2024/01/25 05:14:40;;;;;;;14.43;2.90;;;6.60;38.80;;;;;;5004627;28;20234;-83
2024/01/25 05:17:10;;;;;;;12.47;3.27;;;6.70;39.20;;;;;;5007643;28;20260;-82
2024/01/25 05:19:38;;;;;;;8.63;2.70;;;6.70;38.70;;;;;;4979057;28;20245;-81
2024/01/25 05:22:07;;;;;;;11.53;3.10;;;6.60;39.50;;;;;;4999720;28;20221;-82
2024/01/25 05:24:36;;;;;;;12.53;2.93;;;6.70;38.40;;;;;;4981478;28;20229;-83
2024/01/25 05:27:05;;;;;;;15.30;2.80;;;6.60;38.30;;;;;;4978362;28;20225;-81
2024/01/25 05:29:33;;;;;;;11.13;2.63;;;6.60;39.50;;;;;;4992679;28;20218;-83
2024/01/25 05:32:01;;;;;;;16.93;3.20;;;6.60;38.70;;;;;;4997177;28;21011;-83
2024/01/25 05:34:31;;;;;;;11.70;2.53;;;6.70;41.20;;;;;;4988859;28;20228;-82
2024/01/25 05:37:01;;;;;;;12.10;2.50;;;6.70;39.00;;;;;;4962341;28;20836;-81
2024/01/25 05:39:29;;;;;;;15.03;2.67;;;6.70;37.90;;;;;;4990471;28;20252;-82
2024/01/25 05:41:58;;;;;;;13.67;2.93;;;6.70;37.20;;;;;;5004143;28;22704;-83
2024/01/25 05:44:26;;;;;;;8.13;2.50;;;6.70;37.90;;;;;;4998400;28;20304;-83
2024/01/25 05:46:55;;;;;;;13.63;3.27;;;6.60;38.80;;;;;;5003470;28;20704;-82
2024/01/25 05:49:23;;;;;;;15.57;2.90;;;6.60;38.40;;;;;;4996282;28;20224;-81
2024/01/25 05:51:54;;;;;;;12.83;2.77;;;6.70;38.80;;;;;;4980642;28;20222;-82
2024/01/25 05:54:22;;;;;;;16.03;2.83;;;6.70;38.60;;;;;;4994582;28;20323;-82
2024/01/25 05:56:51;;;;;;;17.60;3.60;;;6.60;38.60;;;;;;4996319;28;20229;-83
2024/01/25 05:59:19;;;;;;;14.83;3.10;;;6.70;38.10;;;;;;4992929;28;20380;-84
2024/01/25 06:01:48;;;;;;;12.77;2.33;;;6.70;38.40;;;;;;4996090;28;20241;-84
2024/01/25 06:04:16;;;;;;;11.83;3.10;;;6.70;38.70;;;;;;4999647;28;20246;-83
2024/01/25 06:06:45;;;;;;;15.67;3.70;;;6.70;38.40;;;;;;5010649;28;20214;-83
2024/01/25 06:09:16;;;;;;;15.47;3.17;;;6.70;38.50;;;;;;4995637;28;20848;-85
2024/01/25 06:11:48;;;;;;;10.60;3.27;;;6.70;38.20;;;;;;4989940;28;20242;-84
2024/01/25 06:14:16;;;;;;;12.57;2.83;;;6.70;37.90;;;;;;4991832;28;20289;-82
2024/01/25 06:16:45;;;;;;;16.37;3.53;;;6.70;37.60;;;;;;5002315;28;20308;-83
2024/01/25 06:19:14;;;;;;;13.23;3.90;;;6.60;38.70;;;;;;4998092;28;20230;-84
2024/01/25 06:21:42;;;;;;;12.43;2.97;;;6.70;38.60;;;;;;5017533;28;20221;-84
2024/01/25 06:24:11;;;;;;;14.60;3.00;;;6.60;38.60;;;;;;5001989;28;20315;-81
2024/01/25 06:26:41;;;;;;;16.00;2.77;;;6.70;38.80;;;;;;5000847;28;20478;-83
2024/01/25 06:29:09;;;;;;;18.43;3.23;;;6.80;40.00;;;;;;4965516;28;20229;-84
2024/01/25 06:31:43;;;;;;;13.70;3.13;;;6.80;37.70;;;;;;4998425;28;20229;-82
2024/01/25 06:34:12;;;;;;;14.83;2.90;;;6.60;38.90;;;;;;4994559;28;20226;-83
2024/01/25 06:36:41;;;;;;;13.43;2.80;;;6.70;39.20;;;;;;4995590;28;20349;-84
2024/01/25 06:39:10;;;;;;;16.47;3.47;;;6.60;39.50;;;;;;4976119;28;20225;-82
2024/01/25 06:41:38;;;;;;;13.43;2.83;;;6.60;38.80;;;;;;5000587;28;20314;-83
2024/01/25 06:44:09;;;;;;;14.03;3.17;;;6.70;39.20;;;;;;5002726;28;20262;-81
2024/01/25 06:46:38;;;;;;;12.87;3.00;;;6.80;38.20;;;;;;5001655;28;20240;-90
2024/01/25 06:49:07;;;;;;;16.15;2.92;;;6.60;39.10;;;;;;4999434;28;20234;-88
2024/01/25 06:51:36;;;;;;;14.97;3.00;;;6.60;40.40;;;;;;5002324;28;20361;-79
2024/01/25 06:54:05;;;;;;;14.03;3.10;;;6.70;40.50;;;;;;4977905;28;20263;-82
2024/01/25 06:56:34;;;;;;;14.87;2.73;;;6.70;41.90;;;;;;4998892;28;20230;-82
2024/01/25 06:59:03;;;;;;;10.85;2.45;;;6.70;41.90;;;;;;4997002;28;20223;-82
2024/01/25 07:01:33;;;;;;;10.27;2.67;;;6.50;41.50;;;;;;4980631;28;20216;-85
2024/01/25 07:04:03;;;;;;;12.60;3.00;;;6.50;43.50;;;;;;4968854;28;20258;-83
2024/01/25 07:06:32;;;;;;;13.13;2.67;;;6.50;43.70;;;;;;5000114;28;20234;-82
2024/01/25 07:09:01;;;;;;;17.17;3.10;;;6.60;43.50;;;;;;5000857;28;20227;-81
2024/01/25 07:11:30;;;;;;;10.25;2.70;;;6.60;43.80;;;;;;5004136;28;20307;-81
2024/01/25 07:13:58;;;;;;;11.87;2.87;;;6.50;43.60;;;;;;5002363;28;20397;-82
2024/01/25 07:16:26;;;;;;;9.55;3.08;;;6.50;44.10;;;;;;5009536;28;20226;-81
2024/01/25 07:18:57;;;;;;;14.40;2.97;;;6.50;43.90;;;;;;4998760;28;20272;-80
2024/01/25 07:21:25;;;;;;;13.20;2.93;;;6.40;45.00;;;;;;5006494;28;20230;-82
2024/01/25 07:23:54;;;;;;;11.37;2.80;;;6.40;45.90;;;;;;4987948;28;20222;-81
2024/01/25 07:26:24;;;;;;;13.10;3.20;;;6.40;45.80;;;;;;5000929;28;20230;-80
2024/01/25 07:28:56;;;;;;;8.33;2.50;;;6.40;46.00;;;;;;5011868;28;20229;-81
2024/01/25 07:31:25;;;;;;;14.13;2.70;;;6.40;45.10;;;;;;5003030;28;20323;-81
2024/01/25 07:33:56;;;;;;;12.40;2.80;;;6.40;45.90;;;;;;4994528;28;20309;-82
2024/01/25 07:36:25;;;;;;;13.50;2.90;;;6.40;44.80;;;;;;5001154;28;20236;-80
2024/01/25 07:38:53;;;;;;;11.53;2.67;;;6.40;45.70;;;;;;4998146;28;20233;-81
2024/01/25 07:41:22;;;;;;;12.80;2.67;;;6.40;45.40;;;;;;4978603;28;20230;-79
2024/01/25 07:43:54;;;;;;;13.50;2.97;;;6.40;45.20;;;;;;5000062;28;20230;-81
2024/01/25 07:46:24;;;;;;;11.20;2.90;;;6.50;45.40;;;;;;5008912;28;20241;-81
2024/01/25 07:48:52;;;;;;;12.50;2.77;;;6.40;45.10;;;;;;4993030;28;20224;-80
2024/01/25 07:51:22;;;;;;;9.40;2.53;;;6.50;46.50;;;;;;4986797;28;20316;-81
2024/01/25 07:53:51;;;;;;;15.57;3.10;;;6.50;45.00;;;;;;4987568;28;20280;-83
2024/01/25 07:56:21;;;;;;;10.57;2.50;;;6.50;44.30;;;;;;4987828;28;20236;-81
2024/01/25 07:58:51;;;;;;;12.40;2.90;;;6.60;43.90;;;;;;5001194;28;20229;-82
2024/01/25 08:01:20;;;;;;;13.53;2.37;;;6.50;43.30;;;;;;5003541;28;20245;-81
2024/01/25 08:03:49;;;;;;;9.43;2.73;;;6.40;44.60;;;;;;4988154;28;20326;-81
2024/01/25 08:06:18;;;;;;;10.07;2.63;;;6.40;45.00;;;;;;5002399;28;20566;-81
2024/01/25 08:08:48;;;;;;;10.77;2.53;;;6.40;44.90;;;;;;5008155;28;20281;-81
2024/01/25 08:11:19;;;;;;;13.80;7.20;;;6.50;45.70;;;;;;4967887;28;20230;-82
2024/01/25 08:13:49;;;;;;;6.23;2.33;;;6.60;43.90;;;;;;4997896;28;20701;-81
2024/01/25 08:16:19;;;;;;;9.50;2.20;;;6.60;44.30;;;;;;5001735;28;20238;-83
2024/01/25 08:18:49;;;;;;;7.67;2.07;;;6.60;44.60;;;;;;4998919;28;20228;-81
2024/01/25 08:21:19;;;;;;;11.13;2.00;;;6.60;43.00;;;;;;4994516;28;20280;-81
2024/01/25 08:23:49;;;;;;;10.20;2.03;;;6.60;43.40;;;;;;5000914;28;20222;-82
2024/01/25 08:26:18;;;;;;;6.87;2.20;;;6.60;43.80;;;;;;5015659;28;20271;-82
2024/01/25 08:28:47;;;;;;;11.03;2.40;;;6.60;43.70;;;;;;4978593;28;20397;-81
2024/01/25 08:31:17;;;;;;;9.17;2.37;;;6.70;42.80;;;;;;4993209;28;20236;-82
2024/01/25 08:33:47;;;;;;;7.20;1.63;;;6.70;41.40;;;;;;5004387;28;20222;-81
2024/01/25 08:36:18;;;;;;;6.30;1.70;;;6.70;42.50;;;;;;4999948;28;20241;-83
2024/01/25 08:38:49;;;;;;;9.73;1.80;;;6.70;43.10;;;;;;4955145;28;20354;-82
2024/01/25 08:41:17;;;;;;;6.33;1.90;;;6.70;42.90;;;;;;4984085;28;20222;-82
2024/01/25 08:43:46;;;;;;;6.37;1.53;;;6.70;41.20;;;;;;4973946;28;20227;-81
2024/01/25 08:46:16;;;;;;;6.00;1.60;;;6.60;42.50;;;;;;4975059;28;20223;-81
2024/01/25 08:48:45;;;;;;;5.40;1.40;;;6.70;42.00;;;;;;4978008;28;20229;-82
2024/01/25 08:51:14;;;;;;;5.27;1.70;;;6.70;41.90;;;;;;4979988;28;20232;-81
2024/01/25 08:53:43;;;;;;;4.70;1.63;;;6.80;42.60;;;;;;4960880;28;20302;-82
2024/01/25 08:56:14;;;;;;;5.97;1.80;;;6.70;42.80;;;;;;4962862;28;20223;-82
2024/01/25 08:58:43;;;;;;;7.20;1.80;;;6.70;43.20;;;;;;4944107;28;20239;-81
2024/01/25 09:01:11;;;;;;;2.87;1.50;;;6.70;42.10;;;;;;4965386;28;20226;-82
2024/01/25 09:03:41;;;;;;;3.23;1.40;;;6.70;51.10;;;;;;4962136;28;20234;-80
2024/01/25 09:06:10;;;;;;;2.80;1.30;;;6.70;39.70;;;;;;4979216;28;20221;-80
2024/01/25 09:08:39;;;;;;;4.33;1.40;;;6.80;40.30;;;;;;4968176;28;20248;-80
2024/01/25 09:11:08;;;;;;;2.83;1.50;;;6.80;41.20;;;;;;4977734;28;20808;-82
2024/01/25 09:13:44;;;;;;;5.13;1.50;;;6.90;40.80;;;;;;4977107;28;20393;-80
2024/01/25 09:16:14;;;;;;;4.20;1.53;;;6.80;40.60;;;;;;4948015;28;20741;-82
2024/01/25 09:18:43;;;;;;;5.73;1.60;;;6.80;41.50;;;;;;4975795;28;20292;-82
2024/01/25 09:21:12;;;;;;;5.07;1.70;;;6.70;41.20;;;;;;4970775;28;20234;-80
2024/01/25 09:23:41;;;;;;;4.27;2.30;;;6.80;41.60;;;;;;4972621;28;20229;-79
2024/01/25 09:26:09;;;;;;;4.60;2.53;;;6.70;42.00;;;;;;4976088;28;20230;-83
2024/01/25 09:28:39;;;;;;;2.73;2.00;;;6.70;41.20;;;;;;4973135;28;20233;-82
2024/01/25 09:31:09;;;;;;;4.07;2.10;;;6.80;41.00;;;;;;4937372;28;20255;-82
2024/01/25 09:33:38;;;;;;;4.53;3.37;;;6.80;41.20;;;;;;4963736;28;20344;-82
2024/01/25 09:36:08;;;;;;;6.50;3.43;;;6.90;41.20;;;;;;4975306;28;20236;-81
2024/01/25 09:38:37;;;;;;;5.33;2.43;;;6.80;40.90;;;;;;5004386;28;20225;-81
2024/01/25 09:41:06;;;;;;;15.93;9.53;;;6.80;40.70;;;;;;4994310;28;20287;-81
2024/01/25 09:43:34;;;;;;;4.87;3.60;;;6.90;42.10;;;;;;4995843;28;20270;-80
2024/01/25 09:46:08;;;;;;;4.13;2.80;;;6.80;41.00;;;;;;4992492;28;20246;-82
2024/01/25 09:48:37;;;;;;;5.93;3.00;;;6.90;40.50;;;;;;4993678;28;20237;-80
2024/01/25 09:51:06;;;;;;;3.87;1.90;;;6.90;41.00;;;;;;5006203;28;20297;-80
2024/01/25 09:53:35;;;;;;;3.30;1.80;;;6.90;40.80;;;;;;4995838;28;20240;-80
2024/01/25 09:56:08;;;;;;;5.97;2.60;;;6.90;40.50;;;;;;4995973;28;20222;-81
2024/01/25 09:58:39;;;;;;;3.10;1.90;;;6.90;40.30;;;;;;5001127;28;20223;-81
2024/01/25 10:01:13;;;;;;;4.67;1.77;;;6.90;40.00;;;;;;5005756;28;20242;-80
2024/01/25 10:03:43;;;;;;;4.53;2.20;;;6.80;40.20;;;;;;4995254;28;20210;-81
2024/01/25 10:06:13;;;;;;;4.25;2.20;;;6.80;39.70;;;;;;4978085;28;20521;-81
2024/01/25 10:08:42;;;;;;;4.97;3.00;;;6.80;39.60;;;;;;4995843;28;20314;-80
2024/01/25 10:11:11;;;;;;;4.53;2.00;;;6.90;40.30;;;;;;4996815;28;20230;-79
2024/01/25 10:13:44;;;;;;;5.03;2.43;;;6.80;40.40;;;;;;4977269;28;20320;-80
2024/01/25 10:16:15;;;;;;;6.33;3.53;;;6.80;40.10;;;;;;4997761;28;20227;-81
2024/01/25 10:18:45;;;;;;;3.13;1.90;;;6.70;40.50;;;;;;4978692;28;20233;-80
2024/01/25 10:21:16;;;;;;;3.33;2.00;;;6.80;41.10;;;;;;4991487;28;20325;-80
2024/01/25 10:23:47;;;;;;;3.90;2.20;;;6.80;40.90;;;;;;4994692;28;20275;-81
2024/01/25 10:26:17;;;;;;;4.67;2.13;;;6.70;41.20;;;;;;4999366;28;20226;-80
2024/01/25 10:28:52;;;;;;;3.90;2.10;;;6.70;40.70;;;;;;4976415;28;20229;-81
2024/01/25 10:31:31;;;;;;;3.73;2.40;;;6.80;40.60;;;;;;5002475;28;20232;-81
2024/01/25 10:34:01;;;;;;;5.33;2.33;;;6.90;40.00;;;;;;4991271;28;20673;-81
2024/01/25 10:36:31;;;;;;;5.20;2.37;;;6.90;39.40;;;;;;4986695;28;20725;-80
2024/01/25 10:39:05;;;;;;;2.73;2.07;;;6.90;39.00;;;;;;4979370;28;20226;-81
2024/01/25 10:41:35;;;;;;;4.33;1.80;;;6.90;39.40;;;;;;5012404;28;20230;-84
2024/01/25 10:44:06;;;;;;;5.10;1.67;;;7.00;39.40;;;;;;4989258;28;20864;-81
2024/01/25 10:46:38;;;;;;;4.37;2.27;;;7.10;38.00;;;;;;4997003;28;20232;-82
2024/01/25 10:49:09;;;;;;;4.37;2.07;;;7.10;37.80;;;;;;4987396;28;20224;-80
2024/01/25 10:51:38;;;;;;;3.37;1.67;;;7.10;37.30;;;;;;4982107;28;20234;-81
2024/01/25 10:54:08;;;;;;;3.70;2.15;;;7.10;37.10;;;;;;4985586;28;20237;-81
2024/01/25 10:56:37;;;;;;;3.05;1.80;;;7.20;36.00;;;;;;4994437;28;20732;-81
2024/01/25 10:59:06;;;;;;;5.57;2.43;;;7.20;36.20;;;;;;5008253;28;20258;-82
2024/01/25 11:01:37;;;;;;;3.33;1.90;;;7.20;35.60;;;;;;4981428;28;20238;-82
2024/01/25 11:04:13;;;;;;;4.70;2.20;;;7.20;36.10;;;;;;4992817;28;20245;-82
2024/01/25 11:06:43;;;;;;;5.23;1.80;;;7.20;36.20;;;;;;5002426;28;20225;-80
2024/01/25 11:09:18;;;;;;;9.23;3.40;;;7.20;36.10;;;;;;5001002;28;20229;-82
2024/01/25 11:11:49;;;;;;;4.37;2.13;;;7.30;35.50;;;;;;4998321;28;20637;-81
2024/01/25 11:14:20;;;;;;;4.80;2.35;;;7.30;35.10;;;;;;4994378;28;20317;-80
2024/01/25 11:16:50;;;;;;;3.03;1.63;;;7.40;34.90;;;;;;5017921;28;20328;-81
2024/01/25 11:19:20;;;;;;;2.23;1.50;;;7.40;33.70;;;;;;5000548;28;20326;-82
2024/01/25 11:21:51;;;;;;;4.70;2.00;;;7.40;34.30;;;;;;4994101;28;20325;-81
2024/01/25 11:24:23;;;;;;;4.55;1.70;;;7.30;34.70;;;;;;5002456;28;20245;-80
2024/01/25 11:26:52;;;;;;;4.10;2.00;;;7.30;37.70;;;;;;5003573;28;20225;-82
2024/01/25 11:29:22;;;;;;;5.07;1.90;;;7.30;34.70;;;;;;4996581;28;20233;-81
2024/01/25 11:31:53;;;;;;;3.58;1.80;;;7.30;34.80;;;;;;4992771;28;20720;-82
2024/01/25 11:34:23;;;;;;;3.95;1.67;;;7.20;34.80;;;;;;5001055;28;20318;-82
2024/01/25 11:36:52;;;;;;;3.55;1.55;;;7.30;34.50;;;;;;4986064;28;20844;-81
2024/01/25 11:39:21;;;;;;;2.70;1.55;;;7.20;34.80;;;;;;4998516;28;20234;-80
2024/01/25 11:41:52;;;;;;;2.00;1.70;;;7.30;34.00;;;;;;4991888;28;20239;-80
2024/01/25 11:44:24;;;;;;;5.17;1.73;;;7.30;34.90;;;;;;4998208;28;20226;-82
2024/01/25 11:46:56;;;;;;;3.65;1.83;;;7.30;34.20;;;;;;4995792;28;20305;-82
2024/01/25 11:49:25;;;;;;;4.03;1.57;;;7.30;34.00;;;;;;4995267;28;20235;-81
2024/01/25 11:51:55;;;;;;;3.65;2.05;;;7.20;35.30;;;;;;4992700;28;20389;-81
2024/01/25 11:54:23;;;;;;;3.27;1.67;;;7.20;34.60;;;;;;4999641;28;20231;-82
2024/01/25 11:56:52;;;;;;;2.60;1.90;;;7.30;35.50;;;;;;4997139;28;20219;-81
2024/01/25 11:59:21;;;;;;;5.10;2.20;;;7.30;34.80;;;;;;5001056;28;20246;-81
2024/01/25 12:01:50;;;;;;;5.33;2.03;;;7.30;34.30;;;;;;4998548;28;20229;-81
2024/01/25 12:04:21;;;;;;;5.07;2.00;;;7.30;35.20;;;;;;4977088;28;20960;-82
2024/01/25 12:06:50;;;;;;;3.00;1.67;;;7.30;34.70;;;;;;4993611;28;20227;-82
2024/01/25 12:09:18;;;;;;;2.57;2.00;;;7.30;34.10;;;;;;4982975;28;20313;-81
2024/01/25 12:11:51;;;;;;;5.10;2.37;;;7.40;33.90;;;;;;4989120;28;20252;-82
2024/01/25 12:14:20;;;;;;;3.37;1.90;;;7.30;35.50;;;;;;4994872;28;20234;-82
2024/01/25 12:16:49;;;;;;;3.58;2.40;;;7.30;35.20;;;;;;4996156;28;20750;-82
2024/01/25 12:19:17;;;;;;;4.17;2.10;;;7.20;36.50;;;;;;4999507;28;20242;-82
2024/01/25 12:21:48;;;;;;;4.43;2.20;;;7.20;36.30;;;;;;5002933;28;20242;-80
2024/01/25 12:24:16;;;;;;;6.03;2.40;;;7.10;37.60;;;;;;4979226;28;20253;-81
2024/01/25 12:26:45;;;;;;;3.65;2.13;;;7.10;38.20;;;;;;4997420;28;20222;-81
2024/01/25 12:29:14;;;;;;;3.72;2.50;;;7.10;39.20;;;;;;4994918;28;20301;-81
2024/01/25 12:31:43;;;;;;;6.55;2.67;;;7.10;39.60;;;;;;4990149;28;20689;-81
2024/01/25 12:34:16;;;;;;;6.23;2.93;;;6.90;41.00;;;;;;4997781;28;20327;-81
2024/01/25 12:36:47;;;;;;;5.43;2.40;;;6.90;40.30;;;;;;4982834;28;20249;-81
2024/01/25 12:39:15;;;;;;;8.38;4.13;;;7.00;42.20;;;;;;4998825;28;20313;-81
2024/01/25 12:41:47;;;;;;;5.13;1.90;;;6.90;41.70;;;;;;4981059;28;20238;-79
2024/01/25 12:44:17;;;;;;;3.97;3.00;;;6.40;41.70;;;;;;4998752;28;20325;-82
2024/01/25 12:46:46;;;;;;;5.57;3.20;;;6.30;40.80;;;;;;4997242;28;20239;-82
2024/01/25 12:49:16;;;;;;;7.80;4.30;;;5.80;42.30;;;;;;5006495;28;20238;-81
2024/01/25 12:51:45;;;;;;;6.60;4.30;;;5.90;45.00;;;;;;5001063;28;20232;-81
2024/01/25 12:54:15;;;;;;;4.87;3.90;;;6.00;45.70;;;;;;5006053;28;20230;-80
2024/01/25 12:56:44;;;;;;;3.33;2.80;;;6.00;43.70;;;;;;4988535;28;20245;-82
2024/01/25 12:59:13;;;;;;;2.63;1.90;;;6.20;42.20;;;;;;4997312;28;20230;-82
2024/01/25 13:01:42;;;;;;;4.07;2.90;;;6.20;41.40;;;;;;4995619;28;20225;-81